PWSweather.com
Personal Weather Stations
Station Observations
THRCKWTHR1
Aveley, EssexGB RM154EL

AveleyEssexGB RM154EL

Lat: 51.5000552, Lon: 0.2501753000000235

Elevation: 98.5

Station Type: Oregon Scientific WMR88

www.facebook.com/thurrockweather

High Low Average
Temperature 68.7°F20.4°C 48.9°F9.4°C 55.7°F13.2°C
Dew Point 65.3°F18.5°C 47.6°F8.7°C 51.9°F11.1°C
Winds 10.4 mph 16.7 kmh Calm Calm 3.0 mph SW4.8 kmh SW
Wind Gusts 10.6 mph17.1 kmh 1.6 mph2.6 kmh 6.0 mph9.7 kmh
Humidity 98% 70% 88%
Pressure 30.30 in1026.1 mb 30.04 in1017.3 mb -
Precipitation 0.00 in0.0 mm - -
Hour Temp Dew Point Humidity Winds Wind Gusts Pressure Precip Precip Rate Daily Precip Total
12:00 AM 51.3°F10.7°C 50.7°F10.4°C 98% 4.4 mph SE7.1 kmh SE 4.9 mph7.9 kmh 30.04 in1017.3 mb 0.00 in0.0 mm 0.00 in0.0 mm 0.00 in0.0 mm
12:05 AM 51.3°F10.7°C 50.7°F10.4°C 98% 4.9 mph ESE7.9 kmh ESE 7.4 mph11.9 kmh 30.04 in1017.3 mb 0.00 in0.0 mm 0.00 in0.0 mm 0.00 in0.0 mm
12:10 AM 51.3°F10.7°C 50.7°F10.4°C 98% 3.5 mph SE5.6 kmh SE 7.4 mph11.9 kmh 30.04 in1017.3 mb 0.00 in0.0 mm 0.00 in0.0 mm 0.00 in0.0 mm
12:15 AM 51.3°F10.7°C 50.7°F10.4°C 98% 1.4 mph S2.3 kmh S 4.4 mph7.1 kmh 30.04 in1017.3 mb 0.00 in0.0 mm 0.00 in0.0 mm 0.00 in0.0 mm
12:20 AM 51.3°F10.7°C 50.7°F10.4°C 98% 3.0 mph SSW4.8 kmh SSW 4.9 mph7.9 kmh 30.04 in1017.3 mb 0.00 in0.0 mm 0.00 in0.0 mm 0.00 in0.0 mm
12:25 AM 51.1°F10.6°C 50.5°F10.3°C 98% 1.4 mph SSW2.3 kmh SSW 4.9 mph7.9 kmh 30.07 in1018.3 mb 0.00 in0.0 mm 0.00 in0.0 mm 0.00 in0.0 mm
12:30 AM 51.1°F10.6°C 50.5°F10.3°C 98% 1.6 mph SW2.6 kmh SW 4.1 mph6.6 kmh 30.07 in1018.3 mb 0.00 in0.0 mm 0.00 in0.0 mm 0.00 in0.0 mm
12:35 AM 50.9°F10.5°C 50.4°F10.2°C 98% 3.0 mph S4.8 kmh S 4.1 mph6.6 kmh 30.07 in1018.3 mb 0.00 in0.0 mm 0.00 in0.0 mm 0.00 in0.0 mm
12:40 AM 50.9°F10.5°C 50.4°F10.2°C 98% 3.3 mph S5.3 kmh S 3.8 mph6.1 kmh 30.07 in1018.3 mb 0.00 in0.0 mm 0.00 in0.0 mm 0.00 in0.0 mm
12:45 AM 50.9°F10.5°C 50.4°F10.2°C 98% 4.9 mph S7.9 kmh S 4.9 mph7.9 kmh 30.07 in1018.3 mb 0.00 in0.0 mm 0.00 in0.0 mm 0.00 in0.0 mm
12:50 AM 50.9°F10.5°C 50.4°F10.2°C 98% 3.0 mph S4.8 kmh S 5.2 mph8.4 kmh 30.07 in1018.3 mb 0.00 in0.0 mm 0.00 in0.0 mm 0.00 in0.0 mm
12:55 AM 50.9°F10.5°C 50.4°F10.2°C 98% 3.0 mph W4.8 kmh W 5.2 mph8.4 kmh 30.07 in1018.3 mb 0.00 in0.0 mm 0.00 in0.0 mm 0.00 in0.0 mm
01:00 AM 50.7°F10.4°C 50.2°F10.1°C 98% 1.6 mph WNW2.6 kmh WNW 5.2 mph8.4 kmh 30.07 in1018.3 mb 0.00 in0.0 mm 0.00 in0.0 mm 0.00 in0.0 mm
01:05 AM 50.7°F10.4°C 50.2°F10.1°C 98% 1.1 mph W1.8 kmh W 3.5 mph5.6 kmh 30.07 in1018.3 mb 0.00 in0.0 mm 0.00 in0.0 mm 0.00 in0.0 mm
01:10 AM 50.7°F10.4°C 50.2°F10.1°C 98% 3.0 mph SSW4.8 kmh SSW 3.8 mph6.1 kmh 30.09 in1019.0 mb 0.00 in0.0 mm 0.00 in0.0 mm 0.00 in0.0 mm
01:15 AM 50.5°F10.3°C 50.0°F10.0°C 98% 1.6 mph SSW2.6 kmh SSW 3.8 mph6.1 kmh 30.09 in1019.0 mb 0.00 in0.0 mm 0.00 in0.0 mm 0.00 in0.0 mm
01:20 AM 50.5°F10.3°C 50.0°F10.0°C 98% 3.0 mph S4.8 kmh S 3.8 mph6.1 kmh 30.09 in1019.0 mb 0.00 in0.0 mm 0.00 in0.0 mm 0.00 in0.0 mm
01:25 AM 50.5°F10.3°C 50.0°F10.0°C 98% 2.7 mph SSE4.3 kmh SSE 4.6 mph7.4 kmh 30.09 in1019.0 mb 0.00 in0.0 mm 0.00 in0.0 mm 0.00 in0.0 mm
01:30 AM 50.5°F10.3°C 50.0°F10.0°C 98% 1.9 mph S3.1 kmh S 4.6 mph7.4 kmh 30.09 in1019.0 mb 0.00 in0.0 mm 0.00 in0.0 mm 0.00 in0.0 mm
01:35 AM 50.5°F10.3°C 50.0°F10.0°C 98% 3.3 mph SW5.3 kmh SW 3.8 mph6.1 kmh 30.09 in1019.0 mb 0.00 in0.0 mm 0.00 in0.0 mm 0.00 in0.0 mm
01:40 AM 50.4°F10.2°C 49.8°F9.9°C 98% 3.8 mph SSW6.1 kmh SSW 4.6 mph7.4 kmh 30.09 in1019.0 mb 0.00 in0.0 mm 0.00 in0.0 mm 0.00 in0.0 mm
01:45 AM 50.4°F10.2°C 49.8°F9.9°C 98% 1.9 mph S3.1 kmh S 4.6 mph7.4 kmh 30.09 in1019.0 mb 0.00 in0.0 mm 0.00 in0.0 mm 0.00 in0.0 mm
01:50 AM 50.4°F10.2°C 49.8°F9.9°C 98% 1.1 mph SSW1.8 kmh SSW 4.4 mph7.1 kmh 30.09 in1019.0 mb 0.00 in0.0 mm 0.00 in0.0 mm 0.00 in0.0 mm
01:55 AM 50.2°F10.1°C 49.6°F9.8°C 98% 1.9 mph SW3.1 kmh SW 4.1 mph6.6 kmh 30.09 in1019.0 mb 0.00 in0.0 mm 0.00 in0.0 mm 0.00 in0.0 mm
02:00 AM 50.2°F10.1°C 49.6°F9.8°C 98% 3.5 mph WSW5.6 kmh WSW 4.1 mph6.6 kmh 30.09 in1019.0 mb 0.00 in0.0 mm 0.00 in0.0 mm 0.00 in0.0 mm
02:05 AM 50.2°F10.1°C 49.6°F9.8°C 98% Calm Calm 3.8 mph6.1 kmh 30.09 in1019.0 mb 0.00 in0.0 mm 0.00 in0.0 mm 0.00 in0.0 mm
02:10 AM 50.2°F10.1°C 49.6°F9.8°C 98% 6.5 mph SSW10.5 kmh SSW 6.5 mph10.5 kmh 30.12 in1020.0 mb 0.00 in0.0 mm 0.00 in0.0 mm 0.00 in0.0 mm
02:15 AM 50.2°F10.1°C 49.6°F9.8°C 98% 4.1 mph S6.6 kmh S 6.5 mph10.5 kmh 30.12 in1020.0 mb 0.00 in0.0 mm 0.00 in0.0 mm 0.00 in0.0 mm
02:20 AM 50.0°F10.0°C 49.5°F9.7°C 98% 2.5 mph SSW4.0 kmh SSW 6.5 mph10.5 kmh 30.12 in1020.0 mb 0.00 in0.0 mm 0.00 in0.0 mm 0.00 in0.0 mm
02:25 AM 50.0°F10.0°C 49.5°F9.7°C 98% 4.6 mph SW7.4 kmh SW 5.2 mph8.4 kmh 30.12 in1020.0 mb 0.00 in0.0 mm 0.00 in0.0 mm 0.00 in0.0 mm
02:30 AM 50.0°F10.0°C 49.5°F9.7°C 98% 4.4 mph SSW7.1 kmh SSW 5.2 mph8.4 kmh 30.12 in1020.0 mb 0.00 in0.0 mm 0.00 in0.0 mm 0.00 in0.0 mm
02:35 AM 50.0°F10.0°C 49.5°F9.7°C 98% 1.9 mph SSW3.1 kmh SSW 4.6 mph7.4 kmh 30.12 in1020.0 mb 0.00 in0.0 mm 0.00 in0.0 mm 0.00 in0.0 mm
02:40 AM 50.0°F10.0°C 49.5°F9.7°C 98% 3.0 mph SW4.8 kmh SW 4.9 mph7.9 kmh 30.12 in1020.0 mb 0.00 in0.0 mm 0.00 in0.0 mm 0.00 in0.0 mm
02:45 AM 50.0°F10.0°C 49.5°F9.7°C 98% 2.5 mph SW4.0 kmh SW 4.9 mph7.9 kmh 30.12 in1020.0 mb 0.00 in0.0 mm 0.00 in0.0 mm 0.00 in0.0 mm
02:50 AM 49.8°F9.9°C 49.3°F9.6°C 98% 1.6 mph WSW2.6 kmh WSW 5.2 mph8.4 kmh 30.12 in1020.0 mb 0.00 in0.0 mm 0.00 in0.0 mm 0.00 in0.0 mm
02:55 AM 49.8°F9.9°C 49.3°F9.6°C 98% 1.4 mph WSW2.3 kmh WSW 5.2 mph8.4 kmh 30.12 in1020.0 mb 0.00 in0.0 mm 0.00 in0.0 mm 0.00 in0.0 mm
03:00 AM 49.6°F9.8°C 49.1°F9.5°C 98% 1.1 mph SW1.8 kmh SW 3.8 mph6.1 kmh 30.12 in1020.0 mb 0.00 in0.0 mm 0.00 in0.0 mm 0.00 in0.0 mm
03:05 AM 49.6°F9.8°C 49.1°F9.5°C 98% 2.5 mph SW4.0 kmh SW 3.5 mph5.6 kmh 30.12 in1020.0 mb 0.00 in0.0 mm 0.00 in0.0 mm 0.00 in0.0 mm
03:10 AM 49.6°F9.8°C 49.1°F9.5°C 98% 2.7 mph SSW4.3 kmh SSW 3.5 mph5.6 kmh 30.12 in1020.0 mb 0.00 in0.0 mm 0.00 in0.0 mm 0.00 in0.0 mm
03:15 AM 49.6°F9.8°C 49.1°F9.5°C 98% 7.1 mph S11.4 kmh S 7.1 mph11.4 kmh 30.12 in1020.0 mb 0.00 in0.0 mm 0.00 in0.0 mm 0.00 in0.0 mm
03:20 AM 49.6°F9.8°C 49.1°F9.5°C 98% 3.0 mph SW4.8 kmh SW 7.1 mph11.4 kmh 30.12 in1020.0 mb 0.00 in0.0 mm 0.00 in0.0 mm 0.00 in0.0 mm
03:25 AM 49.6°F9.8°C 49.1°F9.5°C 98% 2.5 mph SW4.0 kmh SW 4.9 mph7.9 kmh 30.12 in1020.0 mb 0.00 in0.0 mm 0.00 in0.0 mm 0.00 in0.0 mm
03:30 AM 49.6°F9.8°C 49.1°F9.5°C 98% 3.5 mph S5.6 kmh S 3.5 mph5.6 kmh 30.12 in1020.0 mb 0.00 in0.0 mm 0.00 in0.0 mm 0.00 in0.0 mm
03:35 AM 49.6°F9.8°C 49.1°F9.5°C 98% 1.4 mph S2.3 kmh S 3.5 mph5.6 kmh 30.12 in1020.0 mb 0.00 in0.0 mm 0.00 in0.0 mm 0.00 in0.0 mm
03:40 AM 49.6°F9.8°C 49.1°F9.5°C 98% 1.6 mph SSW2.6 kmh SSW 3.5 mph5.6 kmh 30.12 in1020.0 mb 0.00 in0.0 mm 0.00 in0.0 mm 0.00 in0.0 mm
03:45 AM 49.6°F9.8°C 49.1°F9.5°C 98% 3.0 mph SSW4.8 kmh SSW 4.9 mph7.9 kmh 30.12 in1020.0 mb 0.00 in0.0 mm 0.00 in0.0 mm 0.00 in0.0 mm
03:50 AM 49.8°F9.9°C 49.3°F9.6°C 98% 3.0 mph SSW4.8 kmh SSW 4.9 mph7.9 kmh 30.12 in1020.0 mb 0.00 in0.0 mm 0.00 in0.0 mm 0.00 in0.0 mm
03:55 AM 49.8°F9.9°C 49.3°F9.6°C 98% 4.6 mph SW7.4 kmh SW 4.6 mph7.4 kmh 30.12 in1020.0 mb 0.00 in0.0 mm 0.00 in0.0 mm 0.00 in0.0 mm
04:00 AM 49.8°F9.9°C 49.3°F9.6°C 98% 1.1 mph SW1.8 kmh SW 4.6 mph7.4 kmh 30.12 in1020.0 mb 0.00 in0.0 mm 0.00 in0.0 mm 0.00 in0.0 mm
04:05 AM 49.8°F9.9°C 49.3°F9.6°C 98% 1.9 mph SW3.1 kmh SW 4.6 mph7.4 kmh 30.12 in1020.0 mb 0.00 in0.0 mm 0.00 in0.0 mm 0.00 in0.0 mm
04:10 AM 49.8°F9.9°C 49.3°F9.6°C 98% Calm Calm 3.3 mph5.3 kmh 30.12 in1020.0 mb 0.00 in0.0 mm 0.00 in0.0 mm 0.00 in0.0 mm
04:15 AM 49.8°F9.9°C 49.3°F9.6°C 98% 1.1 mph S1.8 kmh S 4.1 mph6.6 kmh 30.12 in1020.0 mb 0.00 in0.0 mm 0.00 in0.0 mm 0.00 in0.0 mm
04:20 AM 49.6°F9.8°C 49.1°F9.5°C 98% 4.6 mph SSW7.4 kmh SSW 4.6 mph7.4 kmh 30.12 in1020.0 mb 0.00 in0.0 mm 0.00 in0.0 mm 0.00 in0.0 mm
04:25 AM 49.6°F9.8°C 49.1°F9.5°C 98% 1.6 mph SSW2.6 kmh SSW 6.0 mph9.7 kmh 30.15 in1021.0 mb 0.00 in0.0 mm 0.00 in0.0 mm 0.00 in0.0 mm
04:30 AM 49.6°F9.8°C 49.1°F9.5°C 98% 1.4 mph SSE2.3 kmh SSE 6.0 mph9.7 kmh 30.15 in1021.0 mb 0.00 in0.0 mm 0.00 in0.0 mm 0.00 in0.0 mm
04:35 AM 49.6°F9.8°C 49.1°F9.5°C 98% 2.7 mph SW4.3 kmh SW 4.6 mph7.4 kmh 30.15 in1021.0 mb 0.00 in0.0 mm 0.00 in0.0 mm 0.00 in0.0 mm
04:40 AM 49.5°F9.7°C 48.9°F9.4°C 98% 1.1 mph WSW1.8 kmh WSW 4.6 mph7.4 kmh 30.15 in1021.0 mb 0.00 in0.0 mm 0.00 in0.0 mm 0.00 in0.0 mm
04:45 AM 49.5°F9.7°C 48.9°F9.4°C 98% 1.1 mph SW1.8 kmh SW 3.8 mph6.1 kmh 30.15 in1021.0 mb 0.00 in0.0 mm 0.00 in0.0 mm 0.00 in0.0 mm
04:50 AM 49.5°F9.7°C 48.9°F9.4°C 98% 3.5 mph SSW5.6 kmh SSW 3.8 mph6.1 kmh 30.15 in1021.0 mb 0.00 in0.0 mm 0.00 in0.0 mm 0.00 in0.0 mm
04:55 AM 49.5°F9.7°C 48.9°F9.4°C 98% 1.4 mph SW2.3 kmh SW 6.0 mph9.7 kmh 30.15 in1021.0 mb 0.00 in0.0 mm 0.00 in0.0 mm 0.00 in0.0 mm
05:00 AM 49.5°F9.7°C 48.9°F9.4°C 98% 1.6 mph W2.6 kmh W 6.0 mph9.7 kmh 30.15 in1021.0 mb 0.00 in0.0 mm 0.00 in0.0 mm 0.00 in0.0 mm
05:05 AM 49.5°F9.7°C 48.9°F9.4°C 98% 3.3 mph NW5.3 kmh NW 5.7 mph9.2 kmh 30.15 in1021.0 mb 0.00 in0.0 mm 0.00 in0.0 mm 0.00 in0.0 mm
05:10 AM 49.3°F9.6°C 48.7°F9.3°C 98% Calm Calm 3.8 mph6.1 kmh 30.18 in1022.0 mb 0.00 in0.0 mm 0.00 in0.0 mm 0.00 in0.0 mm
05:15 AM 49.3°F9.6°C 48.7°F9.3°C 98% 1.4 mph SW2.3 kmh SW 3.8 mph6.1 kmh 30.18 in1022.0 mb 0.00 in0.0 mm 0.00 in0.0 mm 0.00 in0.0 mm
05:20 AM 49.1°F9.5°C 48.6°F9.2°C 98% Calm Calm 3.0 mph4.8 kmh 30.18 in1022.0 mb 0.00 in0.0 mm 0.00 in0.0 mm 0.00 in0.0 mm
05:25 AM 49.1°F9.5°C 48.6°F9.2°C 98% 1.4 mph SSW2.3 kmh SSW 3.0 mph4.8 kmh 30.18 in1022.0 mb 0.00 in0.0 mm 0.00 in0.0 mm 0.00 in0.0 mm
05:30 AM 49.1°F9.5°C 48.6°F9.2°C 98% Calm Calm 3.3 mph5.3 kmh 30.18 in1022.0 mb 0.00 in0.0 mm 0.00 in0.0 mm 0.00 in0.0 mm
05:35 AM 49.1°F9.5°C 48.6°F9.2°C 98% 1.9 mph WSW3.1 kmh WSW 3.3 mph5.3 kmh 30.18 in1022.0 mb 0.00 in0.0 mm 0.00 in0.0 mm 0.00 in0.0 mm
05:40 AM 48.9°F9.4°C 48.4°F9.1°C 98% 1.9 mph SW3.1 kmh SW 1.9 mph3.1 kmh 30.18 in1022.0 mb 0.00 in0.0 mm 0.00 in0.0 mm 0.00 in0.0 mm
05:45 AM 49.1°F9.5°C 48.6°F9.2°C 98% 1.1 mph SSW1.8 kmh SSW 1.9 mph3.1 kmh 30.18 in1022.0 mb 0.00 in0.0 mm 0.00 in0.0 mm 0.00 in0.0 mm
05:50 AM 49.3°F9.6°C 48.7°F9.3°C 98% Calm Calm 1.9 mph3.1 kmh 30.18 in1022.0 mb 0.00 in0.0 mm 0.00 in0.0 mm 0.00 in0.0 mm
05:55 AM 49.5°F9.7°C 48.9°F9.4°C 98% 3.0 mph S4.8 kmh S 3.0 mph4.8 kmh 30.18 in1022.0 mb 0.00 in0.0 mm 0.00 in0.0 mm 0.00 in0.0 mm
06:00 AM 49.5°F9.7°C 48.9°F9.4°C 98% 3.0 mph SW4.8 kmh SW 3.8 mph6.1 kmh 30.18 in1022.0 mb 0.00 in0.0 mm 0.00 in0.0 mm 0.00 in0.0 mm
06:05 AM 49.8°F9.9°C 49.3°F9.6°C 98% 3.8 mph SW6.1 kmh SW 6.8 mph10.9 kmh 30.18 in1022.0 mb 0.00 in0.0 mm 0.00 in0.0 mm 0.00 in0.0 mm
06:10 AM 49.8°F9.9°C 49.3°F9.6°C 98% 2.7 mph SSW4.3 kmh SSW 6.8 mph10.9 kmh 30.21 in1023.0 mb 0.00 in0.0 mm 0.00 in0.0 mm 0.00 in0.0 mm
06:15 AM 50.0°F10.0°C 49.5°F9.7°C 98% Calm Calm 3.0 mph4.8 kmh 30.21 in1023.0 mb 0.00 in0.0 mm 0.00 in0.0 mm 0.00 in0.0 mm
06:20 AM 50.2°F10.1°C 49.6°F9.8°C 98% Calm Calm 3.5 mph5.6 kmh 30.21 in1023.0 mb 0.00 in0.0 mm 0.00 in0.0 mm 0.00 in0.0 mm
06:25 AM 50.2°F10.1°C 49.6°F9.8°C 98% Calm Calm 3.8 mph6.1 kmh 30.21 in1023.0 mb 0.00 in0.0 mm 0.00 in0.0 mm 0.00 in0.0 mm
06:30 AM 50.2°F10.1°C 49.6°F9.8°C 98% Calm Calm 3.8 mph6.1 kmh 30.21 in1023.0 mb 0.00 in0.0 mm 0.00 in0.0 mm 0.00 in0.0 mm
06:35 AM 50.2°F10.1°C 49.6°F9.8°C 98% 3.8 mph SW6.1 kmh SW 3.8 mph6.1 kmh 30.21 in1023.0 mb 0.00 in0.0 mm 0.00 in0.0 mm 0.00 in0.0 mm
06:40 AM 50.2°F10.1°C 49.6°F9.8°C 98% 1.6 mph SW2.6 kmh SW 4.1 mph6.6 kmh 30.21 in1023.0 mb 0.00 in0.0 mm 0.00 in0.0 mm 0.00 in0.0 mm
06:45 AM 50.4°F10.2°C 49.8°F9.9°C 98% Calm Calm 4.4 mph7.1 kmh 30.21 in1023.0 mb 0.00 in0.0 mm 0.00 in0.0 mm 0.00 in0.0 mm
06:50 AM 50.2°F10.1°C 49.6°F9.8°C 98% 2.7 mph SW4.3 kmh SW 4.4 mph7.1 kmh 30.21 in1023.0 mb 0.00 in0.0 mm 0.00 in0.0 mm 0.00 in0.0 mm
06:55 AM 50.4°F10.2°C 49.8°F9.9°C 98% 3.0 mph SSW4.8 kmh SSW 3.0 mph4.8 kmh 30.21 in1023.0 mb 0.00 in0.0 mm 0.00 in0.0 mm 0.00 in0.0 mm
07:00 AM 50.4°F10.2°C 49.8°F9.9°C 98% Calm Calm 4.6 mph7.4 kmh 30.21 in1023.0 mb 0.00 in0.0 mm 0.00 in0.0 mm 0.00 in0.0 mm
07:05 AM 50.4°F10.2°C 49.8°F9.9°C 98% Calm Calm 4.6 mph7.4 kmh 30.21 in1023.0 mb 0.00 in0.0 mm 0.00 in0.0 mm 0.00 in0.0 mm
07:10 AM 50.4°F10.2°C 49.8°F9.9°C 98% 1.4 mph SW2.3 kmh SW 3.3 mph5.3 kmh 30.21 in1023.0 mb 0.00 in0.0 mm 0.00 in0.0 mm 0.00 in0.0 mm
07:15 AM 50.4°F10.2°C 49.8°F9.9°C 98% 1.9 mph SSW3.1 kmh SSW 3.8 mph6.1 kmh 30.21 in1023.0 mb 0.00 in0.0 mm 0.00 in0.0 mm 0.00 in0.0 mm
07:20 AM 50.5°F10.3°C 50.0°F10.0°C 98% 1.4 mph SSW2.3 kmh SSW 3.8 mph6.1 kmh 30.21 in1023.0 mb 0.00 in0.0 mm 0.00 in0.0 mm 0.00 in0.0 mm
07:25 AM 50.7°F10.4°C 50.2°F10.1°C 98% 1.1 mph SSW1.8 kmh SSW 3.3 mph5.3 kmh 30.24 in1024.0 mb 0.00 in0.0 mm 0.00 in0.0 mm 0.00 in0.0 mm
07:30 AM 51.3°F10.7°C 50.7°F10.4°C 98% 1.1 mph SSW1.8 kmh SSW 4.1 mph6.6 kmh 30.24 in1024.0 mb 0.00 in0.0 mm 0.00 in0.0 mm 0.00 in0.0 mm
07:35 AM 51.6°F10.9°C 51.1°F10.6°C 98% Calm Calm 5.7 mph9.2 kmh 30.24 in1024.0 mb 0.00 in0.0 mm 0.00 in0.0 mm 0.00 in0.0 mm
07:40 AM 52.0°F11.1°C 51.4°F10.8°C 98% 1.9 mph SW3.1 kmh SW 6.0 mph9.7 kmh 30.24 in1024.0 mb 0.00 in0.0 mm 0.00 in0.0 mm 0.00 in0.0 mm
07:45 AM 52.3°F11.3°C 51.8°F11.0°C 98% Calm Calm 6.0 mph9.7 kmh 30.24 in1024.0 mb 0.00 in0.0 mm 0.00 in0.0 mm 0.00 in0.0 mm
07:50 AM 52.7°F11.5°C 52.2°F11.2°C 98% 1.6 mph SW2.6 kmh SW 4.6 mph7.4 kmh 30.24 in1024.0 mb 0.00 in0.0 mm 0.00 in0.0 mm 0.00 in0.0 mm
07:55 AM 53.1°F11.7°C 52.5°F11.4°C 98% 3.5 mph SSW5.6 kmh SSW 3.8 mph6.1 kmh 30.24 in1024.0 mb 0.00 in0.0 mm 0.00 in0.0 mm 0.00 in0.0 mm
08:00 AM 53.6°F12.0°C 53.0°F11.7°C 98% 1.6 mph SSW2.6 kmh SSW 4.9 mph7.9 kmh 30.24 in1024.0 mb 0.00 in0.0 mm 0.00 in0.0 mm 0.00 in0.0 mm
08:05 AM 53.6°F12.0°C 53.0°F11.7°C 98% 3.0 mph SSW4.8 kmh SSW 4.9 mph7.9 kmh 30.24 in1024.0 mb 0.00 in0.0 mm 0.00 in0.0 mm 0.00 in0.0 mm
08:10 AM 54.1°F12.3°C 53.6°F12.0°C 98% 3.0 mph SSW4.8 kmh SSW 6.8 mph10.9 kmh 30.24 in1024.0 mb 0.00 in0.0 mm 0.00 in0.0 mm 0.00 in0.0 mm
08:15 AM 54.3°F12.4°C 53.8°F12.1°C 98% 6.0 mph SSW9.7 kmh SSW 6.8 mph10.9 kmh 30.24 in1024.0 mb 0.00 in0.0 mm 0.00 in0.0 mm 0.00 in0.0 mm
08:20 AM 54.5°F12.5°C 53.9°F12.2°C 98% 1.6 mph SW2.6 kmh SW 6.8 mph10.9 kmh 30.24 in1024.0 mb 0.00 in0.0 mm 0.00 in0.0 mm 0.00 in0.0 mm
08:25 AM 54.9°F12.7°C 54.3°F12.4°C 98% 3.8 mph SW6.1 kmh SW 6.8 mph10.9 kmh 30.24 in1024.0 mb 0.00 in0.0 mm 0.00 in0.0 mm 0.00 in0.0 mm
08:30 AM 55.6°F13.1°C 55.0°F12.8°C 98% 1.6 mph SSW2.6 kmh SSW 6.0 mph9.7 kmh 30.24 in1024.0 mb 0.00 in0.0 mm 0.00 in0.0 mm 0.00 in0.0 mm
08:35 AM 55.9°F13.3°C 55.4°F13.0°C 98% 3.0 mph SSW4.8 kmh SSW 4.6 mph7.4 kmh 30.24 in1024.0 mb 0.00 in0.0 mm 0.00 in0.0 mm 0.00 in0.0 mm
08:40 AM 56.3°F13.5°C 55.7°F13.2°C 98% 1.6 mph SSW2.6 kmh SSW 6.0 mph9.7 kmh 30.24 in1024.0 mb 0.00 in0.0 mm 0.00 in0.0 mm 0.00 in0.0 mm
08:45 AM 56.8°F13.8°C 56.3°F13.5°C 98% 2.5 mph S4.0 kmh S 6.0 mph9.7 kmh 30.24 in1024.0 mb 0.00 in0.0 mm 0.00 in0.0 mm 0.00 in0.0 mm
08:50 AM 57.6°F14.2°C 57.0°F13.9°C 98% 1.6 mph SSW2.6 kmh SSW 4.6 mph7.4 kmh 30.24 in1024.0 mb 0.00 in0.0 mm 0.00 in0.0 mm 0.00 in0.0 mm
08:55 AM 57.9°F14.4°C 57.4°F14.1°C 98% 2.5 mph SSE4.0 kmh SSE 4.6 mph7.4 kmh 30.24 in1024.0 mb 0.00 in0.0 mm 0.00 in0.0 mm 0.00 in0.0 mm
09:00 AM 58.3°F14.6°C 57.7°F14.3°C 98% 3.0 mph SE4.8 kmh SE 4.4 mph7.1 kmh 30.24 in1024.0 mb 0.00 in0.0 mm 0.00 in0.0 mm 0.00 in0.0 mm
09:05 AM 58.8°F14.9°C 58.3°F14.6°C 98% 3.5 mph SSW5.6 kmh SSW 4.9 mph7.9 kmh 30.24 in1024.0 mb 0.00 in0.0 mm 0.00 in0.0 mm 0.00 in0.0 mm
09:10 AM 59.4°F15.2°C 58.8°F14.9°C 98% 2.5 mph S4.0 kmh S 4.9 mph7.9 kmh 30.24 in1024.0 mb 0.00 in0.0 mm 0.00 in0.0 mm 0.00 in0.0 mm
09:15 AM 59.7°F15.4°C 59.2°F15.1°C 98% 4.6 mph SSE7.4 kmh SSE 4.6 mph7.4 kmh 30.24 in1024.0 mb 0.00 in0.0 mm 0.00 in0.0 mm 0.00 in0.0 mm
09:20 AM 60.1°F15.6°C 59.5°F15.3°C 98% 4.6 mph WSW7.4 kmh WSW 4.6 mph7.4 kmh 30.24 in1024.0 mb 0.00 in0.0 mm 0.00 in0.0 mm 0.00 in0.0 mm
09:25 AM 60.8°F16.0°C 60.2°F15.7°C 98% 4.9 mph WSW7.9 kmh WSW 4.9 mph7.9 kmh 30.24 in1024.0 mb 0.00 in0.0 mm 0.00 in0.0 mm 0.00 in0.0 mm
09:30 AM 61.2°F16.2°C 60.6°F15.9°C 98% 3.8 mph WSW6.1 kmh WSW 6.0 mph9.7 kmh 30.24 in1024.0 mb 0.00 in0.0 mm 0.00 in0.0 mm 0.00 in0.0 mm
09:35 AM 61.0°F16.1°C 60.1°F15.6°C 97% 3.5 mph SW5.6 kmh SW 6.8 mph10.9 kmh 30.24 in1024.0 mb 0.00 in0.0 mm 0.00 in0.0 mm 0.00 in0.0 mm
09:40 AM 61.0°F16.1°C 60.1°F15.6°C 97% 7.6 mph SSW12.2 kmh SSW 7.6 mph12.2 kmh 30.24 in1024.0 mb 0.00 in0.0 mm 0.00 in0.0 mm 0.00 in0.0 mm
09:45 AM 61.3°F16.3°C 60.5°F15.8°C 97% 5.2 mph WSW8.4 kmh WSW 7.6 mph12.2 kmh 30.24 in1024.0 mb 0.00 in0.0 mm 0.00 in0.0 mm 0.00 in0.0 mm
09:50 AM 61.0°F16.1°C 59.8°F15.4°C 96% 1.9 mph W3.1 kmh W 7.6 mph12.2 kmh 30.24 in1024.0 mb 0.00 in0.0 mm 0.00 in0.0 mm 0.00 in0.0 mm
09:55 AM 61.2°F16.2°C 60.0°F15.6°C 96% 5.2 mph SSW8.4 kmh SSW 6.5 mph10.5 kmh 30.27 in1025.1 mb 0.00 in0.0 mm 0.00 in0.0 mm 0.00 in0.0 mm
10:00 AM 61.9°F16.6°C 61.0°F16.1°C 97% 3.3 mph S5.3 kmh S 6.5 mph10.5 kmh 30.27 in1025.1 mb 0.00 in0.0 mm 0.00 in0.0 mm 0.00 in0.0 mm
10:05 AM 62.2°F16.8°C 61.4°F16.3°C 97% 4.9 mph SE7.9 kmh SE 7.9 mph12.7 kmh 30.27 in1025.1 mb 0.00 in0.0 mm 0.00 in0.0 mm 0.00 in0.0 mm
10:10 AM 62.6°F17.0°C 61.4°F16.3°C 96% 1.6 mph E2.6 kmh E 7.9 mph12.7 kmh 30.27 in1025.1 mb 0.00 in0.0 mm 0.00 in0.0 mm 0.00 in0.0 mm
10:15 AM 62.8°F17.1°C 61.6°F16.4°C 96% 3.5 mph WSW5.6 kmh WSW 7.4 mph11.9 kmh 30.27 in1025.1 mb 0.00 in0.0 mm 0.00 in0.0 mm 0.00 in0.0 mm
10:20 AM 63.1°F17.3°C 62.0°F16.7°C 96% 3.0 mph SW4.8 kmh SW 6.0 mph9.7 kmh 30.27 in1025.1 mb 0.00 in0.0 mm 0.00 in0.0 mm 0.00 in0.0 mm
10:25 AM 63.5°F17.5°C 62.3°F16.8°C 96% 3.0 mph S4.8 kmh S 6.0 mph9.7 kmh 30.27 in1025.1 mb 0.00 in0.0 mm 0.00 in0.0 mm 0.00 in0.0 mm
10:30 AM 63.9°F17.7°C 62.4°F16.9°C 95% 4.1 mph SW6.6 kmh SW 7.4 mph11.9 kmh 30.27 in1025.1 mb 0.00 in0.0 mm 0.00 in0.0 mm 0.00 in0.0 mm
10:35 AM 64.4°F18.0°C 62.6°F17.0°C 94% 3.3 mph WSW5.3 kmh WSW 7.4 mph11.9 kmh 30.27 in1025.1 mb 0.00 in0.0 mm 0.00 in0.0 mm 0.00 in0.0 mm
10:40 AM 65.1°F18.4°C 63.7°F17.6°C 95% 3.0 mph W4.8 kmh W 7.4 mph11.9 kmh 30.27 in1025.1 mb 0.00 in0.0 mm 0.00 in0.0 mm 0.00 in0.0 mm
10:45 AM 65.5°F18.6°C 63.7°F17.6°C 94% 3.3 mph WNW5.3 kmh WNW 7.4 mph11.9 kmh 30.27 in1025.1 mb 0.00 in0.0 mm 0.00 in0.0 mm 0.00 in0.0 mm
10:50 AM 65.7°F18.7°C 63.6°F17.6°C 93% 3.5 mph WSW5.6 kmh WSW 7.4 mph11.9 kmh 30.27 in1025.1 mb 0.00 in0.0 mm 0.00 in0.0 mm 0.00 in0.0 mm
10:55 AM 66.0°F18.9°C 63.9°F17.7°C 93% 2.5 mph WSW4.0 kmh WSW 7.9 mph12.7 kmh 30.27 in1025.1 mb 0.00 in0.0 mm 0.00 in0.0 mm 0.00 in0.0 mm
11:00 AM 66.4°F19.1°C 64.3°F17.9°C 93% 3.3 mph WSW5.3 kmh WSW 7.9 mph12.7 kmh 30.27 in1025.1 mb 0.00 in0.0 mm 0.00 in0.0 mm 0.00 in0.0 mm
11:05 AM 67.1°F19.5°C 64.7°F18.2°C 92% 3.5 mph SW5.6 kmh SW 4.4 mph7.1 kmh 30.27 in1025.1 mb 0.00 in0.0 mm 0.00 in0.0 mm 0.00 in0.0 mm
11:10 AM 67.3°F19.6°C 64.9°F18.3°C 92% 5.2 mph SW8.4 kmh SW 6.5 mph10.5 kmh 30.27 in1025.1 mb 0.00 in0.0 mm 0.00 in0.0 mm 0.00 in0.0 mm
11:15 AM 67.6°F19.8°C 64.6°F18.1°C 90% 4.4 mph SW7.1 kmh SW 6.5 mph10.5 kmh 30.27 in1025.1 mb 0.00 in0.0 mm 0.00 in0.0 mm 0.00 in0.0 mm
11:20 AM 68.0°F20.0°C 65.0°F18.3°C 90% 4.1 mph SSW6.6 kmh SSW 6.0 mph9.7 kmh 30.27 in1025.1 mb 0.00 in0.0 mm 0.00 in0.0 mm 0.00 in0.0 mm
11:25 AM 68.7°F20.4°C 65.3°F18.5°C 89% 3.0 mph S4.8 kmh S 4.9 mph7.9 kmh 30.27 in1025.1 mb 0.00 in0.0 mm 0.00 in0.0 mm 0.00 in0.0 mm
11:30 AM 68.4°F20.2°C 63.7°F17.6°C 85% 3.8 mph S6.1 kmh S 7.1 mph11.4 kmh 30.27 in1025.1 mb 0.00 in0.0 mm 0.00 in0.0 mm 0.00 in0.0 mm
11:35 AM 67.6°F19.8°C 62.3°F16.8°C 83% 7.6 mph SW12.2 kmh SW 7.6 mph12.2 kmh 30.27 in1025.1 mb 0.00 in0.0 mm 0.00 in0.0 mm 0.00 in0.0 mm
11:40 AM 67.5°F19.7°C 62.8°F17.1°C 85% 1.9 mph SW3.1 kmh SW 7.6 mph12.2 kmh 30.27 in1025.1 mb 0.00 in0.0 mm 0.00 in0.0 mm 0.00 in0.0 mm
11:45 AM 66.7°F19.3°C 61.4°F16.3°C 83% 6.8 mph SW10.9 kmh SW 7.6 mph12.2 kmh 30.27 in1025.1 mb 0.00 in0.0 mm 0.00 in0.0 mm 0.00 in0.0 mm
11:50 AM 66.7°F19.3°C 61.4°F16.3°C 83% 3.3 mph S5.3 kmh S 6.8 mph10.9 kmh 30.27 in1025.1 mb 0.00 in0.0 mm 0.00 in0.0 mm 0.00 in0.0 mm
11:55 AM 66.9°F19.4°C 61.2°F16.2°C 82% 4.6 mph SW7.4 kmh SW 6.8 mph10.9 kmh 30.27 in1025.1 mb 0.00 in0.0 mm 0.00 in0.0 mm 0.00 in0.0 mm
12:00 PM 67.3°F19.6°C 61.9°F16.6°C 83% 1.9 mph W3.1 kmh W 10.6 mph17.1 kmh 30.27 in1025.1 mb 0.00 in0.0 mm 0.00 in0.0 mm 0.00 in0.0 mm
12:05 PM 67.6°F19.8°C 61.9°F16.6°C 82% 3.5 mph WNW5.6 kmh WNW 10.6 mph17.1 kmh 30.27 in1025.1 mb 0.00 in0.0 mm 0.00 in0.0 mm 0.00 in0.0 mm
12:10 PM 67.6°F19.8°C 61.9°F16.6°C 82% 4.9 mph SSE7.9 kmh SSE 6.5 mph10.5 kmh 30.27 in1025.1 mb 0.00 in0.0 mm 0.00 in0.0 mm 0.00 in0.0 mm
12:15 PM 67.3°F19.6°C 60.9°F16.1°C 80% 2.5 mph S4.0 kmh S 7.9 mph12.7 kmh 30.27 in1025.1 mb 0.00 in0.0 mm 0.00 in0.0 mm 0.00 in0.0 mm
12:20 PM 67.3°F19.6°C 60.5°F15.8°C 79% 1.6 mph SW2.6 kmh SW 8.5 mph13.7 kmh 30.27 in1025.1 mb 0.00 in0.0 mm 0.00 in0.0 mm 0.00 in0.0 mm
12:25 PM 67.6°F19.8°C 60.5°F15.8°C 78% 3.5 mph W5.6 kmh W 8.5 mph13.7 kmh 30.27 in1025.1 mb 0.00 in0.0 mm 0.00 in0.0 mm 0.00 in0.0 mm
12:30 PM 67.1°F19.5°C 60.0°F15.6°C 78% 2.5 mph NW4.0 kmh NW 7.4 mph11.9 kmh 30.27 in1025.1 mb 0.00 in0.0 mm 0.00 in0.0 mm 0.00 in0.0 mm
12:35 PM 66.9°F19.4°C 59.5°F15.3°C 77% 3.0 mph W4.8 kmh W 6.5 mph10.5 kmh 30.27 in1025.1 mb 0.00 in0.0 mm 0.00 in0.0 mm 0.00 in0.0 mm
12:40 PM 66.0°F18.9°C 58.2°F14.6°C 76% 1.6 mph SW2.6 kmh SW 7.1 mph11.4 kmh 30.27 in1025.1 mb 0.00 in0.0 mm 0.00 in0.0 mm 0.00 in0.0 mm
12:45 PM 65.8°F18.8°C 57.3°F14.1°C 74% 7.4 mph SW11.9 kmh SW 7.4 mph11.9 kmh 30.27 in1025.1 mb 0.00 in0.0 mm 0.00 in0.0 mm 0.00 in0.0 mm
12:50 PM 65.5°F18.6°C 57.0°F13.9°C 74% 4.4 mph SW7.1 kmh SW 7.4 mph11.9 kmh 30.27 in1025.1 mb 0.00 in0.0 mm 0.00 in0.0 mm 0.00 in0.0 mm
12:55 PM 64.6°F18.1°C 55.3°F12.9°C 72% 4.4 mph SSW7.1 kmh SSW 7.1 mph11.4 kmh 30.27 in1025.1 mb 0.00 in0.0 mm 0.00 in0.0 mm 0.00 in0.0 mm
01:00 PM 64.2°F17.9°C 56.1°F13.4°C 75% 1.9 mph SW3.1 kmh SW 7.9 mph12.7 kmh 30.27 in1025.1 mb 0.00 in0.0 mm 0.00 in0.0 mm 0.00 in0.0 mm
01:05 PM 63.9°F17.7°C 55.0°F12.8°C 73% 3.3 mph SW5.3 kmh SW 7.9 mph12.7 kmh 30.27 in1025.1 mb 0.00 in0.0 mm 0.00 in0.0 mm 0.00 in0.0 mm
01:10 PM 63.5°F17.5°C 54.7°F12.6°C 73% 7.4 mph S11.9 kmh S 7.4 mph11.9 kmh 30.27 in1025.1 mb 0.00 in0.0 mm 0.00 in0.0 mm 0.00 in0.0 mm
01:15 PM 63.3°F17.4°C 54.5°F12.5°C 73% 4.6 mph S7.4 kmh S 7.4 mph11.9 kmh 30.27 in1025.1 mb 0.00 in0.0 mm 0.00 in0.0 mm 0.00 in0.0 mm
01:20 PM 63.1°F17.3°C 54.0°F12.2°C 72% 3.3 mph S5.3 kmh S 10.6 mph17.1 kmh 30.27 in1025.1 mb 0.00 in0.0 mm 0.00 in0.0 mm 0.00 in0.0 mm
01:25 PM 63.0°F17.2°C 54.2°F12.3°C 73% 10.4 mph S16.7 kmh S 10.6 mph17.1 kmh 30.27 in1025.1 mb 0.00 in0.0 mm 0.00 in0.0 mm 0.00 in0.0 mm
01:30 PM 62.6°F17.0°C 53.4°F11.9°C 72% 2.5 mph SSW4.0 kmh SSW 10.4 mph16.7 kmh 30.27 in1025.1 mb 0.00 in0.0 mm 0.00 in0.0 mm 0.00 in0.0 mm
01:35 PM 62.6°F17.0°C 53.4°F11.9°C 72% 6.5 mph SW10.5 kmh SW 6.5 mph10.5 kmh 30.27 in1025.1 mb 0.00 in0.0 mm 0.00 in0.0 mm 0.00 in0.0 mm
01:40 PM 62.4°F16.9°C 53.3°F11.8°C 72% 2.5 mph SW4.0 kmh SW 6.5 mph10.5 kmh 30.27 in1025.1 mb 0.00 in0.0 mm 0.00 in0.0 mm 0.00 in0.0 mm
01:45 PM 62.6°F17.0°C 53.4°F11.9°C 72% 2.7 mph SSW4.3 kmh SSW 7.4 mph11.9 kmh 30.27 in1025.1 mb 0.00 in0.0 mm 0.00 in0.0 mm 0.00 in0.0 mm
01:50 PM 62.8°F17.1°C 53.6°F12.0°C 72% 4.4 mph SSW7.1 kmh SSW 7.4 mph11.9 kmh 30.27 in1025.1 mb 0.00 in0.0 mm 0.00 in0.0 mm 0.00 in0.0 mm
01:55 PM 62.6°F17.0°C 52.7°F11.5°C 70% 7.1 mph SW11.4 kmh SW 7.6 mph12.2 kmh 30.27 in1025.1 mb 0.00 in0.0 mm 0.00 in0.0 mm 0.00 in0.0 mm
02:00 PM 62.6°F17.0°C 52.7°F11.5°C 70% 5.2 mph SSW8.4 kmh SSW 7.6 mph12.2 kmh 30.27 in1025.1 mb 0.00 in0.0 mm 0.00 in0.0 mm 0.00 in0.0 mm
02:05 PM 62.2°F16.8°C 52.3°F11.3°C 70% 4.4 mph SSW7.1 kmh SSW 6.5 mph10.5 kmh 30.27 in1025.1 mb 0.00 in0.0 mm 0.00 in0.0 mm 0.00 in0.0 mm
02:10 PM 62.2°F16.8°C 52.7°F11.5°C 71% 3.0 mph SSW4.8 kmh SSW 5.2 mph8.4 kmh 30.27 in1025.1 mb 0.00 in0.0 mm 0.00 in0.0 mm 0.00 in0.0 mm
02:15 PM 62.1°F16.7°C 52.5°F11.4°C 71% 3.0 mph SW4.8 kmh SW 6.8 mph10.9 kmh 30.27 in1025.1 mb 0.00 in0.0 mm 0.00 in0.0 mm 0.00 in0.0 mm
02:20 PM 61.9°F16.6°C 52.4°F11.3°C 71% 3.8 mph W6.1 kmh W 6.8 mph10.9 kmh 30.27 in1025.1 mb 0.00 in0.0 mm 0.00 in0.0 mm 0.00 in0.0 mm
02:25 PM 61.9°F16.6°C 52.8°F11.6°C 72% 1.9 mph WNW3.1 kmh WNW 3.8 mph6.1 kmh 30.27 in1025.1 mb 0.00 in0.0 mm 0.00 in0.0 mm 0.00 in0.0 mm
02:30 PM 61.9°F16.6°C 52.4°F11.3°C 71% 3.5 mph S5.6 kmh S 7.1 mph11.4 kmh 30.27 in1025.1 mb 0.00 in0.0 mm 0.00 in0.0 mm 0.00 in0.0 mm
02:35 PM 61.9°F16.6°C 52.4°F11.3°C 71% 5.2 mph SSW8.4 kmh SSW 7.1 mph11.4 kmh 30.27 in1025.1 mb 0.00 in0.0 mm 0.00 in0.0 mm 0.00 in0.0 mm
02:40 PM 62.1°F16.7°C 52.9°F11.6°C 72% 4.6 mph SW7.4 kmh SW 6.0 mph9.7 kmh 30.27 in1025.1 mb 0.00 in0.0 mm 0.00 in0.0 mm 0.00 in0.0 mm
02:45 PM 62.4°F16.9°C 53.3°F11.8°C 72% 6.5 mph SSW10.5 kmh SSW 6.5 mph10.5 kmh 30.27 in1025.1 mb 0.00 in0.0 mm 0.00 in0.0 mm 0.00 in0.0 mm
02:50 PM 62.4°F16.9°C 52.9°F11.6°C 71% 5.2 mph SSW8.4 kmh SSW 6.5 mph10.5 kmh 30.27 in1025.1 mb 0.00 in0.0 mm 0.00 in0.0 mm 0.00 in0.0 mm
02:55 PM 62.2°F16.8°C 52.7°F11.5°C 71% 5.7 mph SW9.2 kmh SW 7.1 mph11.4 kmh 30.27 in1025.1 mb 0.00 in0.0 mm 0.00 in0.0 mm 0.00 in0.0 mm
03:00 PM 61.9°F16.6°C 52.4°F11.3°C 71% 3.3 mph SW5.3 kmh SW 7.1 mph11.4 kmh 30.27 in1025.1 mb 0.00 in0.0 mm 0.00 in0.0 mm 0.00 in0.0 mm
03:05 PM 61.9°F16.6°C 52.4°F11.3°C 71% 3.5 mph SW5.6 kmh SW 6.8 mph10.9 kmh 30.27 in1025.1 mb 0.00 in0.0 mm 0.00 in0.0 mm 0.00 in0.0 mm
03:10 PM 61.9°F16.6°C 52.4°F11.3°C 71% 9.0 mph SW14.5 kmh SW 9.0 mph14.5 kmh 30.27 in1025.1 mb 0.00 in0.0 mm 0.00 in0.0 mm 0.00 in0.0 mm
03:15 PM 61.9°F16.6°C 52.4°F11.3°C 71% 3.0 mph SW4.8 kmh SW 10.4 mph16.7 kmh 30.27 in1025.1 mb 0.00 in0.0 mm 0.00 in0.0 mm 0.00 in0.0 mm
03:20 PM 61.9°F16.6°C 52.4°F11.3°C 71% 3.5 mph SW5.6 kmh SW 10.6 mph17.1 kmh 30.27 in1025.1 mb 0.00 in0.0 mm 0.00 in0.0 mm 0.00 in0.0 mm
03:25 PM 61.7°F16.5°C 52.2°F11.2°C 71% 4.6 mph SSW7.4 kmh SSW 10.6 mph17.1 kmh 30.27 in1025.1 mb 0.00 in0.0 mm 0.00 in0.0 mm 0.00 in0.0 mm
03:30 PM 61.7°F16.5°C 52.2°F11.2°C 71% 3.0 mph SSW4.8 kmh SSW 5.2 mph8.4 kmh 30.27 in1025.1 mb 0.00 in0.0 mm 0.00 in0.0 mm 0.00 in0.0 mm
03:35 PM 61.7°F16.5°C 52.2°F11.2°C 71% 4.1 mph SW6.6 kmh SW 6.8 mph10.9 kmh 30.27 in1025.1 mb 0.00 in0.0 mm 0.00 in0.0 mm 0.00 in0.0 mm
03:40 PM 61.5°F16.4°C 52.0°F11.1°C 71% 6.5 mph S10.5 kmh S 6.8 mph10.9 kmh 30.27 in1025.1 mb 0.00 in0.0 mm 0.00 in0.0 mm 0.00 in0.0 mm
03:45 PM 61.3°F16.3°C 51.9°F11.1°C 71% 5.2 mph S8.4 kmh S 6.5 mph10.5 kmh 30.27 in1025.1 mb 0.00 in0.0 mm 0.00 in0.0 mm 0.00 in0.0 mm
03:50 PM 61.2°F16.2°C 51.7°F10.9°C 71% 4.6 mph S7.4 kmh S 7.1 mph11.4 kmh 30.27 in1025.1 mb 0.00 in0.0 mm 0.00 in0.0 mm 0.00 in0.0 mm
03:55 PM 60.8°F16.0°C 51.3°F10.7°C 71% 4.1 mph SSW6.6 kmh SSW 7.1 mph11.4 kmh 30.27 in1025.1 mb 0.00 in0.0 mm 0.00 in0.0 mm 0.00 in0.0 mm
04:00 PM 60.6°F15.9°C 51.2°F10.7°C 71% 4.6 mph SW7.4 kmh SW 6.8 mph10.9 kmh 30.27 in1025.1 mb 0.00 in0.0 mm 0.00 in0.0 mm 0.00 in0.0 mm
04:05 PM 60.6°F15.9°C 51.5°F10.8°C 72% 4.6 mph SW7.4 kmh SW 6.8 mph10.9 kmh 30.27 in1025.1 mb 0.00 in0.0 mm 0.00 in0.0 mm 0.00 in0.0 mm
04:10 PM 60.4°F15.8°C 51.0°F10.6°C 71% 6.0 mph SW9.7 kmh SW 8.2 mph13.2 kmh 30.27 in1025.1 mb 0.00 in0.0 mm 0.00 in0.0 mm 0.00 in0.0 mm
04:15 PM 60.3°F15.7°C 50.8°F10.4°C 71% 6.5 mph SSW10.5 kmh SSW 8.2 mph13.2 kmh 30.27 in1025.1 mb 0.00 in0.0 mm 0.00 in0.0 mm 0.00 in0.0 mm
04:20 PM 60.1°F15.6°C 50.6°F10.3°C 71% 6.5 mph SW10.5 kmh SW 9.8 mph15.8 kmh 30.27 in1025.1 mb 0.00 in0.0 mm 0.00 in0.0 mm 0.00 in0.0 mm
04:25 PM 59.7°F15.4°C 50.3°F10.2°C 71% 2.7 mph SSW4.3 kmh SSW 9.8 mph15.8 kmh 30.27 in1025.1 mb 0.00 in0.0 mm 0.00 in0.0 mm 0.00 in0.0 mm
04:30 PM 59.5°F15.3°C 50.1°F10.1°C 71% 3.3 mph SSW5.3 kmh SSW 7.1 mph11.4 kmh 30.27 in1025.1 mb 0.00 in0.0 mm 0.00 in0.0 mm 0.00 in0.0 mm
04:35 PM 59.4°F15.2°C 50.0°F10.0°C 71% 3.8 mph SW6.1 kmh SW 5.2 mph8.4 kmh 30.27 in1025.1 mb 0.00 in0.0 mm 0.00 in0.0 mm 0.00 in0.0 mm
04:40 PM 59.4°F15.2°C 50.0°F10.0°C 71% 3.0 mph SSW4.8 kmh SSW 4.9 mph7.9 kmh 30.27 in1025.1 mb 0.00 in0.0 mm 0.00 in0.0 mm 0.00 in0.0 mm
04:45 PM 59.2°F15.1°C 49.8°F9.9°C 71% 2.5 mph SW4.0 kmh SW 6.5 mph10.5 kmh 30.27 in1025.1 mb 0.00 in0.0 mm 0.00 in0.0 mm 0.00 in0.0 mm
04:50 PM 58.8°F14.9°C 49.8°F9.9°C 72% 1.6 mph SW2.6 kmh SW 6.5 mph10.5 kmh 30.27 in1025.1 mb 0.00 in0.0 mm 0.00 in0.0 mm 0.00 in0.0 mm
04:55 PM 58.6°F14.8°C 49.6°F9.8°C 72% 4.1 mph SSW6.6 kmh SSW 6.5 mph10.5 kmh 30.27 in1025.1 mb 0.00 in0.0 mm 0.00 in0.0 mm 0.00 in0.0 mm
05:00 PM 58.5°F14.7°C 49.5°F9.7°C 72% 3.5 mph SW5.6 kmh SW 6.5 mph10.5 kmh 30.27 in1025.1 mb 0.00 in0.0 mm 0.00 in0.0 mm 0.00 in0.0 mm
05:05 PM 58.3°F14.6°C 49.3°F9.6°C 72% 3.8 mph SW6.1 kmh SW 5.7 mph9.2 kmh 30.27 in1025.1 mb 0.00 in0.0 mm 0.00 in0.0 mm 0.00 in0.0 mm
05:10 PM 57.9°F14.4°C 49.3°F9.6°C 73% 3.8 mph SW6.1 kmh SW 5.7 mph9.2 kmh 30.27 in1025.1 mb 0.00 in0.0 mm 0.00 in0.0 mm 0.00 in0.0 mm
05:15 PM 57.9°F14.4°C 49.3°F9.6°C 73% 5.2 mph SW8.4 kmh SW 5.5 mph8.9 kmh 30.27 in1025.1 mb 0.00 in0.0 mm 0.00 in0.0 mm 0.00 in0.0 mm
05:20 PM 57.6°F14.2°C 49.0°F9.4°C 73% 1.4 mph SW2.3 kmh SW 5.7 mph9.2 kmh 30.27 in1025.1 mb 0.00 in0.0 mm 0.00 in0.0 mm 0.00 in0.0 mm
05:25 PM 57.4°F14.1°C 48.8°F9.3°C 73% Calm Calm 5.7 mph9.2 kmh 30.27 in1025.1 mb 0.00 in0.0 mm 0.00 in0.0 mm 0.00 in0.0 mm
05:30 PM 57.2°F14.0°C 49.0°F9.4°C 74% 3.3 mph S5.3 kmh S 4.6 mph7.4 kmh 30.27 in1025.1 mb 0.00 in0.0 mm 0.00 in0.0 mm 0.00 in0.0 mm
05:35 PM 57.0°F13.9°C 49.2°F9.6°C 75% 3.0 mph SSW4.8 kmh SSW 4.6 mph7.4 kmh 30.27 in1025.1 mb 0.00 in0.0 mm 0.00 in0.0 mm 0.00 in0.0 mm
05:40 PM 57.0°F13.9°C 49.2°F9.6°C 75% 3.5 mph SW5.6 kmh SW 7.6 mph12.2 kmh 30.27 in1025.1 mb 0.00 in0.0 mm 0.00 in0.0 mm 0.00 in0.0 mm
05:45 PM 56.8°F13.8°C 49.4°F9.7°C 76% 3.5 mph SW5.6 kmh SW 7.6 mph12.2 kmh 30.27 in1025.1 mb 0.00 in0.0 mm 0.00 in0.0 mm 0.00 in0.0 mm
05:50 PM 56.8°F13.8°C 49.4°F9.7°C 76% 3.3 mph S5.3 kmh S 7.6 mph12.2 kmh 30.27 in1025.1 mb 0.00 in0.0 mm 0.00 in0.0 mm 0.00 in0.0 mm
05:55 PM 56.7°F13.7°C 49.2°F9.6°C 76% 2.5 mph SSW4.0 kmh SSW 6.5 mph10.5 kmh 30.27 in1025.1 mb 0.00 in0.0 mm 0.00 in0.0 mm 0.00 in0.0 mm
06:00 PM 56.5°F13.6°C 49.4°F9.7°C 77% 4.9 mph SW7.9 kmh SW 5.2 mph8.4 kmh 30.27 in1025.1 mb 0.00 in0.0 mm 0.00 in0.0 mm 0.00 in0.0 mm
06:05 PM 56.3°F13.5°C 49.2°F9.6°C 77% 4.6 mph SW7.4 kmh SW 5.2 mph8.4 kmh 30.27 in1025.1 mb 0.00 in0.0 mm 0.00 in0.0 mm 0.00 in0.0 mm
06:10 PM 56.1°F13.4°C 49.0°F9.4°C 77% 6.5 mph SW10.5 kmh SW 6.5 mph10.5 kmh 30.27 in1025.1 mb 0.00 in0.0 mm 0.00 in0.0 mm 0.00 in0.0 mm
06:15 PM 55.9°F13.3°C 48.8°F9.3°C 77% 1.1 mph SW1.8 kmh SW 6.5 mph10.5 kmh 30.27 in1025.1 mb 0.00 in0.0 mm 0.00 in0.0 mm 0.00 in0.0 mm
06:20 PM 55.9°F13.3°C 48.8°F9.3°C 77% 3.0 mph SSW4.8 kmh SSW 4.4 mph7.1 kmh 30.27 in1025.1 mb 0.00 in0.0 mm 0.00 in0.0 mm 0.00 in0.0 mm
06:25 PM 55.8°F13.2°C 49.0°F9.4°C 78% 3.3 mph S5.3 kmh S 4.6 mph7.4 kmh 30.27 in1025.1 mb 0.00 in0.0 mm 0.00 in0.0 mm 0.00 in0.0 mm
06:30 PM 55.6°F13.1°C 48.8°F9.3°C 78% 3.0 mph S4.8 kmh S 4.6 mph7.4 kmh 30.27 in1025.1 mb 0.00 in0.0 mm 0.00 in0.0 mm 0.00 in0.0 mm
06:35 PM 55.4°F13.0°C 48.7°F9.3°C 78% 3.5 mph SSW5.6 kmh SSW 6.8 mph10.9 kmh 30.27 in1025.1 mb 0.00 in0.0 mm 0.00 in0.0 mm 0.00 in0.0 mm
06:40 PM 55.2°F12.9°C 48.8°F9.3°C 79% 2.7 mph SSW4.3 kmh SSW 6.8 mph10.9 kmh 30.27 in1025.1 mb 0.00 in0.0 mm 0.00 in0.0 mm 0.00 in0.0 mm
06:45 PM 55.0°F12.8°C 48.6°F9.2°C 79% 1.1 mph SSW1.8 kmh SSW 4.6 mph7.4 kmh 30.27 in1025.1 mb 0.00 in0.0 mm 0.00 in0.0 mm 0.00 in0.0 mm
06:50 PM 54.9°F12.7°C 48.8°F9.3°C 80% 2.7 mph SSW4.3 kmh SSW 4.6 mph7.4 kmh 30.27 in1025.1 mb 0.00 in0.0 mm 0.00 in0.0 mm 0.00 in0.0 mm
06:55 PM 54.7°F12.6°C 48.6°F9.2°C 80% 6.0 mph SW9.7 kmh SW 6.0 mph9.7 kmh 30.27 in1025.1 mb 0.00 in0.0 mm 0.00 in0.0 mm 0.00 in0.0 mm
07:00 PM 54.5°F12.5°C 48.5°F9.2°C 80% 2.5 mph SW4.0 kmh SW 6.0 mph9.7 kmh 30.27 in1025.1 mb 0.00 in0.0 mm 0.00 in0.0 mm 0.00 in0.0 mm
07:05 PM 54.5°F12.5°C 48.8°F9.3°C 81% 3.0 mph SW4.8 kmh SW 6.5 mph10.5 kmh 30.27 in1025.1 mb 0.00 in0.0 mm 0.00 in0.0 mm 0.00 in0.0 mm
07:10 PM 54.3°F12.4°C 48.6°F9.2°C 81% 4.6 mph SW7.4 kmh SW 6.5 mph10.5 kmh 30.27 in1025.1 mb 0.00 in0.0 mm 0.00 in0.0 mm 0.00 in0.0 mm
07:15 PM 54.3°F12.4°C 48.6°F9.2°C 81% 1.9 mph SW3.1 kmh SW 6.5 mph10.5 kmh 30.27 in1025.1 mb 0.00 in0.0 mm 0.00 in0.0 mm 0.00 in0.0 mm
07:20 PM 54.0°F12.2°C 48.3°F9.1°C 81% 1.1 mph SW1.8 kmh SW 6.8 mph10.9 kmh 30.27 in1025.1 mb 0.00 in0.0 mm 0.00 in0.0 mm 0.00 in0.0 mm
07:25 PM 54.0°F12.2°C 48.3°F9.1°C 81% 4.1 mph SW6.6 kmh SW 6.8 mph10.9 kmh 30.27 in1025.1 mb 0.00 in0.0 mm 0.00 in0.0 mm 0.00 in0.0 mm
07:30 PM 53.8°F12.1°C 48.1°F8.9°C 81% 3.5 mph SSW5.6 kmh SSW 4.9 mph7.9 kmh 30.27 in1025.1 mb 0.00 in0.0 mm 0.00 in0.0 mm 0.00 in0.0 mm
07:35 PM 53.6°F12.0°C 47.9°F8.8°C 81% 1.9 mph SSW3.1 kmh SSW 4.9 mph7.9 kmh 30.27 in1025.1 mb 0.00 in0.0 mm 0.00 in0.0 mm 0.00 in0.0 mm
07:40 PM 53.4°F11.9°C 48.1°F8.9°C 82% 3.8 mph SSW6.1 kmh SSW 4.4 mph7.1 kmh 30.27 in1025.1 mb 0.00 in0.0 mm 0.00 in0.0 mm 0.00 in0.0 mm
07:45 PM 53.4°F11.9°C 48.1°F8.9°C 82% 2.5 mph SW4.0 kmh SW 4.1 mph6.6 kmh 30.27 in1025.1 mb 0.00 in0.0 mm 0.00 in0.0 mm 0.00 in0.0 mm
07:50 PM 53.2°F11.8°C 47.9°F8.8°C 82% 4.9 mph SW7.9 kmh SW 4.9 mph7.9 kmh 30.27 in1025.1 mb 0.00 in0.0 mm 0.00 in0.0 mm 0.00 in0.0 mm
07:55 PM 53.2°F11.8°C 47.9°F8.8°C 82% 3.0 mph SW4.8 kmh SW 4.9 mph7.9 kmh 30.27 in1025.1 mb 0.00 in0.0 mm 0.00 in0.0 mm 0.00 in0.0 mm
08:00 PM 53.2°F11.8°C 47.9°F8.8°C 82% 3.8 mph SW6.1 kmh SW 5.7 mph9.2 kmh 30.27 in1025.1 mb 0.00 in0.0 mm 0.00 in0.0 mm 0.00 in0.0 mm
08:05 PM 53.1°F11.7°C 47.7°F8.7°C 82% 3.5 mph SW5.6 kmh SW 5.7 mph9.2 kmh 30.27 in1025.1 mb 0.00 in0.0 mm 0.00 in0.0 mm 0.00 in0.0 mm
08:10 PM 53.1°F11.7°C 48.0°F8.9°C 83% 3.8 mph SW6.1 kmh SW 5.2 mph8.4 kmh 30.27 in1025.1 mb 0.00 in0.0 mm 0.00 in0.0 mm 0.00 in0.0 mm
08:15 PM 53.1°F11.7°C 48.0°F8.9°C 83% 3.3 mph SSW5.3 kmh SSW 4.6 mph7.4 kmh 30.27 in1025.1 mb 0.00 in0.0 mm 0.00 in0.0 mm 0.00 in0.0 mm
08:20 PM 53.1°F11.7°C 48.0°F8.9°C 83% 3.3 mph SSW5.3 kmh SSW 4.9 mph7.9 kmh 30.27 in1025.1 mb 0.00 in0.0 mm 0.00 in0.0 mm 0.00 in0.0 mm
08:25 PM 53.1°F11.7°C 48.0°F8.9°C 83% 3.8 mph SW6.1 kmh SW 4.9 mph7.9 kmh 30.27 in1025.1 mb 0.00 in0.0 mm 0.00 in0.0 mm 0.00 in0.0 mm
08:30 PM 53.1°F11.7°C 48.0°F8.9°C 83% 3.5 mph SW5.6 kmh SW 4.9 mph7.9 kmh 30.27 in1025.1 mb 0.00 in0.0 mm 0.00 in0.0 mm 0.00 in0.0 mm
08:35 PM 53.1°F11.7°C 48.0°F8.9°C 83% 3.3 mph SW5.3 kmh SW 7.4 mph11.9 kmh 30.27 in1025.1 mb 0.00 in0.0 mm 0.00 in0.0 mm 0.00 in0.0 mm
08:40 PM 53.1°F11.7°C 48.0°F8.9°C 83% 2.7 mph SSW4.3 kmh SSW 7.4 mph11.9 kmh 30.27 in1025.1 mb 0.00 in0.0 mm 0.00 in0.0 mm 0.00 in0.0 mm
08:45 PM 52.9°F11.6°C 48.2°F9.0°C 84% 3.8 mph SSW6.1 kmh SSW 4.4 mph7.1 kmh 30.27 in1025.1 mb 0.00 in0.0 mm 0.00 in0.0 mm 0.00 in0.0 mm
08:50 PM 52.7°F11.5°C 48.0°F8.9°C 84% 4.1 mph SW6.6 kmh SW 4.6 mph7.4 kmh 30.27 in1025.1 mb 0.00 in0.0 mm 0.00 in0.0 mm 0.00 in0.0 mm
08:55 PM 52.5°F11.4°C 47.8°F8.8°C 84% 5.2 mph SW8.4 kmh SW 5.2 mph8.4 kmh 30.30 in1026.1 mb 0.00 in0.0 mm 0.00 in0.0 mm 0.00 in0.0 mm
09:00 PM 52.5°F11.4°C 47.8°F8.8°C 84% 4.1 mph SW6.6 kmh SW 5.2 mph8.4 kmh 30.30 in1026.1 mb 0.00 in0.0 mm 0.00 in0.0 mm 0.00 in0.0 mm
09:05 PM 52.3°F11.3°C 48.0°F8.9°C 85% 4.1 mph SW6.6 kmh SW 5.2 mph8.4 kmh 30.30 in1026.1 mb 0.00 in0.0 mm 0.00 in0.0 mm 0.00 in0.0 mm
09:10 PM 52.2°F11.2°C 47.8°F8.8°C 85% 3.5 mph SSW5.6 kmh SSW 4.4 mph7.1 kmh 30.30 in1026.1 mb 0.00 in0.0 mm 0.00 in0.0 mm 0.00 in0.0 mm
09:15 PM 52.0°F11.1°C 47.6°F8.7°C 85% 1.9 mph SW3.1 kmh SW 7.9 mph12.7 kmh 30.30 in1026.1 mb 0.00 in0.0 mm 0.00 in0.0 mm 0.00 in0.0 mm
09:20 PM 52.0°F11.1°C 47.6°F8.7°C 85% 2.5 mph SW4.0 kmh SW 7.9 mph12.7 kmh 30.30 in1026.1 mb 0.00 in0.0 mm 0.00 in0.0 mm 0.00 in0.0 mm
09:25 PM 52.0°F11.1°C 47.9°F8.8°C 86% 3.3 mph SSW5.3 kmh SSW 4.6 mph7.4 kmh 30.27 in1025.1 mb 0.00 in0.0 mm 0.00 in0.0 mm 0.00 in0.0 mm
09:30 PM 52.0°F11.1°C 47.9°F8.8°C 86% 1.9 mph SSW3.1 kmh SSW 4.4 mph7.1 kmh 30.27 in1025.1 mb 0.00 in0.0 mm 0.00 in0.0 mm 0.00 in0.0 mm
09:35 PM 52.0°F11.1°C 48.2°F9.0°C 87% Calm Calm 3.8 mph6.1 kmh 30.27 in1025.1 mb 0.00 in0.0 mm 0.00 in0.0 mm 0.00 in0.0 mm
09:40 PM 52.0°F11.1°C 48.2°F9.0°C 87% 4.1 mph SW6.6 kmh SW 5.5 mph8.9 kmh 30.27 in1025.1 mb 0.00 in0.0 mm 0.00 in0.0 mm 0.00 in0.0 mm
09:45 PM 52.0°F11.1°C 48.5°F9.2°C 88% 1.4 mph SW2.3 kmh SW 5.5 mph8.9 kmh 30.27 in1025.1 mb 0.00 in0.0 mm 0.00 in0.0 mm 0.00 in0.0 mm
09:50 PM 52.0°F11.1°C 48.5°F9.2°C 88% 3.0 mph SSW4.8 kmh SSW 6.5 mph10.5 kmh 30.27 in1025.1 mb 0.00 in0.0 mm 0.00 in0.0 mm 0.00 in0.0 mm
09:55 PM 52.0°F11.1°C 48.5°F9.2°C 88% 6.5 mph SW10.5 kmh SW 6.5 mph10.5 kmh 30.27 in1025.1 mb 0.00 in0.0 mm 0.00 in0.0 mm 0.00 in0.0 mm
10:00 PM 52.0°F11.1°C 48.8°F9.3°C 89% 1.9 mph SW3.1 kmh SW 6.5 mph10.5 kmh 30.27 in1025.1 mb 0.00 in0.0 mm 0.00 in0.0 mm 0.00 in0.0 mm
10:05 PM 51.8°F11.0°C 48.7°F9.3°C 89% 3.0 mph SSW4.8 kmh SSW 6.5 mph10.5 kmh 30.27 in1025.1 mb 0.00 in0.0 mm 0.00 in0.0 mm 0.00 in0.0 mm
10:10 PM 51.8°F11.0°C 48.7°F9.3°C 89% 4.1 mph SSW6.6 kmh SSW 4.4 mph7.1 kmh 30.30 in1026.1 mb 0.00 in0.0 mm 0.00 in0.0 mm 0.00 in0.0 mm
10:15 PM 51.8°F11.0°C 48.7°F9.3°C 89% 2.5 mph SW4.0 kmh SW 5.2 mph8.4 kmh 30.30 in1026.1 mb 0.00 in0.0 mm 0.00 in0.0 mm 0.00 in0.0 mm
10:20 PM 51.8°F11.0°C 48.7°F9.3°C 89% 1.4 mph SW2.3 kmh SW 5.2 mph8.4 kmh 30.30 in1026.1 mb 0.00 in0.0 mm 0.00 in0.0 mm 0.00 in0.0 mm
10:25 PM 51.8°F11.0°C 48.7°F9.3°C 89% 3.3 mph SW5.3 kmh SW 3.5 mph5.6 kmh 30.30 in1026.1 mb 0.00 in0.0 mm 0.00 in0.0 mm 0.00 in0.0 mm
10:30 PM 51.8°F11.0°C 49.0°F9.4°C 90% 2.5 mph SW4.0 kmh SW 3.5 mph5.6 kmh 30.30 in1026.1 mb 0.00 in0.0 mm 0.00 in0.0 mm 0.00 in0.0 mm
10:35 PM 51.8°F11.0°C 49.0°F9.4°C 90% 1.9 mph SW3.1 kmh SW 4.4 mph7.1 kmh 30.30 in1026.1 mb 0.00 in0.0 mm 0.00 in0.0 mm 0.00 in0.0 mm
10:40 PM 51.8°F11.0°C 49.0°F9.4°C 90% 3.3 mph SW5.3 kmh SW 5.5 mph8.9 kmh 30.27 in1025.1 mb 0.00 in0.0 mm 0.00 in0.0 mm 0.00 in0.0 mm
10:45 PM 51.8°F11.0°C 49.0°F9.4°C 90% 3.0 mph SW4.8 kmh SW 5.5 mph8.9 kmh 30.27 in1025.1 mb 0.00 in0.0 mm 0.00 in0.0 mm 0.00 in0.0 mm
10:50 PM 51.8°F11.0°C 49.3°F9.6°C 91% 3.5 mph SW5.6 kmh SW 5.7 mph9.2 kmh 30.27 in1025.1 mb 0.00 in0.0 mm 0.00 in0.0 mm 0.00 in0.0 mm
10:55 PM 52.0°F11.1°C 49.4°F9.7°C 91% 4.1 mph SSW6.6 kmh SSW 7.9 mph12.7 kmh 30.27 in1025.1 mb 0.00 in0.0 mm 0.00 in0.0 mm 0.00 in0.0 mm
11:00 PM 51.8°F11.0°C 49.3°F9.6°C 91% Calm Calm 7.9 mph12.7 kmh 30.27 in1025.1 mb 0.00 in0.0 mm 0.00 in0.0 mm 0.00 in0.0 mm
11:05 PM 51.8°F11.0°C 49.3°F9.6°C 91% 2.5 mph SSW4.0 kmh SSW 5.2 mph8.4 kmh 30.27 in1025.1 mb 0.00 in0.0 mm 0.00 in0.0 mm 0.00 in0.0 mm
11:10 PM 51.6°F10.9°C 49.1°F9.5°C 91% 1.1 mph SSW1.8 kmh SSW 3.3 mph5.3 kmh 30.27 in1025.1 mb 0.00 in0.0 mm 0.00 in0.0 mm 0.00 in0.0 mm
11:15 PM 51.6°F10.9°C 49.4°F9.7°C 92% 3.3 mph SSW5.3 kmh SSW 3.3 mph5.3 kmh 30.27 in1025.1 mb 0.00 in0.0 mm 0.00 in0.0 mm 0.00 in0.0 mm
11:20 PM 51.4°F10.8°C 49.2°F9.6°C 92% 3.0 mph SSW4.8 kmh SSW 3.3 mph5.3 kmh 30.27 in1025.1 mb 0.00 in0.0 mm 0.00 in0.0 mm 0.00 in0.0 mm
11:25 PM 51.4°F10.8°C 49.2°F9.6°C 92% Calm Calm 3.5 mph5.6 kmh 30.27 in1025.1 mb 0.00 in0.0 mm 0.00 in0.0 mm 0.00 in0.0 mm
11:30 PM 51.3°F10.7°C 49.0°F9.4°C 92% 1.9 mph SSW3.1 kmh SSW 3.5 mph5.6 kmh 30.27 in1025.1 mb 0.00 in0.0 mm 0.00 in0.0 mm 0.00 in0.0 mm
11:35 PM 51.3°F10.7°C 49.0°F9.4°C 92% Calm Calm 2.5 mph4.0 kmh 30.27 in1025.1 mb 0.00 in0.0 mm 0.00 in0.0 mm 0.00 in0.0 mm
11:40 PM 51.1°F10.6°C 48.8°F9.3°C 92% Calm Calm 3.0 mph4.8 kmh 30.27 in1025.1 mb 0.00 in0.0 mm 0.00 in0.0 mm 0.00 in0.0 mm
11:45 PM 50.9°F10.5°C 48.4°F9.1°C 91% 1.6 mph S2.6 kmh S 3.0 mph4.8 kmh 30.27 in1025.1 mb 0.00 in0.0 mm 0.00 in0.0 mm 0.00 in0.0 mm
11:50 PM 50.9°F10.5°C 48.7°F9.3°C 92% Calm Calm 1.6 mph2.6 kmh 30.27 in1025.1 mb 0.00 in0.0 mm 0.00 in0.0 mm 0.00 in0.0 mm
11:55 PM 51.1°F10.6°C 48.8°F9.3°C 92% Calm Calm 2.5 mph4.0 kmh 30.27 in1025.1 mb 0.00 in0.0 mm 0.00 in0.0 mm 0.00 in0.0 mm